KIPT/IPT METAR and TAF weather

Enter ICAO airport designator
Station Type Date Time Source
KIPT METAR 2019/08/19 01:54 UTC NOAA

KIPT 190154Z 22003KT 10SM CLR 20/18 A2998 RMK AO2 SLP148 T02000183


Station Type Date Time Source
KIPT Decoded METAR 2019/08/19 01:54 UTC NOAA

Station name not available
Aug 18, 2019 - 09:54 PM EDT / 2019.08.19 0154 UTC
Wind: from the SW (220 degrees) at 3 MPH (3 KT):0
Visibility: 10 mile(s):0
Sky conditions: clear
Temperature: 68.0 F (20.0 C)
Dew Point: 64.9 F (18.3 C)
Relative Humidity: 89%
Pressure (altimeter): 29.98 in. Hg (1015 hPa)
ob: KIPT 190154Z 22003KT 10SM CLR 20/18 A2998 RMK AO2 SLP148 T02000183
cycle: 2

Station Type Date Time Source
KIPT TAF 2019/08/18 20:58 UTC NOAA

TAF
AMD KIPT 181958Z 1820/1918 VRB06KT P6SM VCTS SCT050CB
TEMPO 1820/1821 22015G25KT 3SM TSRA BKN025CB
FM182200 18005KT P6SM VCTS SCT050CB
FM190100 VRB03KT P6SM SCT100
FM190800 VRB02KT 4SM BR BKN007
FM191500 25003KT P6SM SCT250

Example: see airport list